Home > Products > Valid Products > TAF

000
FTUS42 KJAX 192300
TAFCRG
TAF
KCRG 192339Z 2000/2024 27006KT P6SM SCT250
     FM201300 28009KT P6SM SCT030
     FM202100 24006KT P6SM VCTS SCT050CB BKN250=



000
FTUS42 KJAX 192300
TAFJAX
TAF
KJAX 192339Z 2000/2024 27004KT P6SM FEW050 BKN250
     FM201300 28008KT P6SM SCT030
     FM202000 26007KT P6SM VCTS SCT050CB BKN250=



000
FTUS42 KJAX 192300
TAFSSI
TAF
KSSI 192339Z 2000/2024 24008KT P6SM FEW050 BKN200
     FM201300 27009KT P6SM SCT020 SCT250
     FM202000 22010KT P6SM SCT050=



000
FTUS42 KJAX 192300
TAFGNV
TAF
KGNV 192339Z 2000/2024 26008KT P6SM FEW040
      TEMPO 2008/2011 5SM BR
     FM201300 28009KT P6SM SCT030
     FM201900 27008KT P6SM VCTS SCT050CB=



000
FTUS42 KJAX 192100 AAB
TAFGNV
TAF AMD
KGNV 192109Z 1921/2018 26010G16KT P6SM VCSH SCT050
     FM192300 25007KT P6SM SCT250
     FM201300 29009KT P6SM SCT030=



000
FTUS42 KJAX 192100 AAC
TAFSSI
TAF AMD
KSSI 192109Z 1921/2018 25009KT P6SM VCSH FEW045 SCT080 BKN150
      TEMPO 1922/1924 5SM SHRA
     FM200100 24008KT P6SM FEW100 SCT250
     FM201300 27009KT P6SM SCT020 SCT250=



000
FTUS42 KJAX 192100 AAC
TAFJAX
TAF AMD
KJAX 192109Z 1921/2018 27011G17KT P6SM VCTS FEW040CB SCT100 BKN250
     FM192300 24007KT P6SM FEW100 SCT250
     FM201300 28008KT P6SM SCT030=



000
FTUS42 KJAX 192100 AAB
TAFCRG
TAF AMD
KCRG 192109Z 1921/2018 25011G17KT P6SM VCTS FEW035CB SCT100 BKN250
     FM192300 24006KT P6SM FEW100 SCT250
     FM201300 28009KT P6SM SCT030=



000
FTUS42 KJAX 192000 AAB
TAFSSI
TAF AMD
KSSI 192037Z 1921/2018 28009KT P6SM VCTS FEW035 SCT045CB BKN150
      TEMPO 1921/1922 5SM TSRA
     FM200100 24008KT P6SM FEW100 SCT250
     FM201300 27009KT P6SM SCT020 SCT250=



000
FTUS42 KJAX 192000 AAB
TAFJAX
TAF AMD
KJAX 192002Z 1920/2018 25012G18KT P6SM VCTS SCT040CB BKN250
      TEMPO 1920/1922 VRB15G35KT 3SM TSRA BKN030CB
     FM192300 24007KT P6SM FEW100 SCT250
     FM201300 28008KT P6SM SCT030=



000
FTUS42 KJAX 192000 AAA
TAFGNV
TAF AMD
KGNV 192001Z 1920/2018 30008G16KT P6SM VCTS SCT040CB BKN250
     FM192300 25007KT P6SM SCT250
     FM201300 29009KT P6SM SCT030=



000
FTUS42 KJAX 191900 AAA
TAFCRG
TAF AMD
KCRG 191931Z 1920/2018 25011G17KT P6SM VCTS SCT035CB BKN250
      TEMPO 1920/1922 VRB15G30KT 4SM TSRA BKN030CB
     FM192300 24006KT P6SM FEW100 SCT250
     FM201300 28009KT P6SM SCT030=



000
FTUS42 KJAX 191900 AAA
TAFJAX
TAF AMD
KJAX 191930Z 1920/2018 25011G18KT P6SM VCTS SCT040CB BKN250
      TEMPO 1920/1922 VRB15G30KT 3SM TSRA BKN030CB
     FM192300 24007KT P6SM FEW100 SCT250
     FM201300 28008KT P6SM SCT030=



000
FTUS42 KJAX 191900 AAA
TAFSSI
TAF AMD
KSSI 191912Z 1919/2018 25009G17KT P6SM VCTS SCT040CB BKN250
      TEMPO 1919/1922 VRB15G30KT 3SM TSRA BKN030CB
     FM200100 24008KT P6SM FEW100 SCT250
     FM201300 27009KT P6SM SCT020 SCT250=



000
FTUS42 KJAX 191700
TAFCRG
TAF
KCRG 191724Z 1918/2018 25010G17KT P6SM VCTS SCT035CB BKN250
     FM192300 24006KT P6SM FEW100 SCT250
     FM201300 28009KT P6SM SCT030=



000
FTUS42 KJAX 191700
TAFGNV
TAF
KGNV 191724Z 1918/2018 24011G18KT P6SM VCTS SCT040CB BKN100
     FM192000 26008G16KT P6SM SCT040 BKN250
     FM200000 24006KT P6SM SCT250
     FM201300 29009KT P6SM SCT030=



000
FTUS42 KJAX 191700
TAFJAX
TAF
KJAX 191724Z 1918/2018 26011G17KT P6SM VCTS SCT035CB BKN250
     FM192300 24007KT P6SM FEW100 SCT250
     FM201300 28008KT P6SM SCT030=



000
FTUS42 KJAX 191700
TAFSSI
TAF
KSSI 191724Z 1918/2018 25009G17KT P6SM VCTS SCT040CB BKN250
     FM200100 24008KT P6SM FEW100 SCT250
     FM201300 27009KT P6SM SCT020 SCT250=



000
FTUS42 KJAX 191600 AAA
TAFGNV
TAF AMD
KGNV 191642Z 1917/2012 26010KT 3SM TSRA BKN035CB
     FM191800 26012G18KT P6SM SCT040 BKN100
     FM200000 24006KT P6SM SCT250=



000
FTUS42 KJAX 191100
TAFGNV
TAF
KGNV 191120Z 1912/2012 25006KT P6SM SCT250
     FM191400 28010KT P6SM SCT040
     FM191800 26012G18KT P6SM SCT050
     FM200000 24006KT P6SM SCT250=



000
FTUS42 KJAX 191100
TAFCRG
TAF
KCRG 191120Z 1912/2012 24006KT P6SM SCT250
     FM191300 25008KT P6SM FEW025
     FM191800 25010G16KT P6SM VCTS SCT040CB BKN250
     FM200000 24006KT P6SM FEW100 SCT250=



000
FTUS42 KJAX 191100
TAFSSI
TAF
KSSI 191120Z 1912/2012 25008KT P6SM SCT250
     FM191800 24009G17KT P6SM VCTS SCT040CB BKN250
     FM200100 24008KT P6SM FEW100 SCT250=



000
FTUS42 KJAX 191100
TAFJAX
TAF
KJAX 191120Z 1912/2012 24006KT P6SM SCT250
     FM191300 26008KT P6SM FEW025
     FM191800 25010G16KT P6SM VCTS SCT040CB BKN250
     FM200000 24006KT P6SM FEW100 SCT250=



000
FTUS42 KJAX 191000 AAC
TAFGNV
TAF AMD
KGNV 191001Z 1910/2006 25005KT P6SM FEW020
     FM191400 28010KT P6SM SCT040
     FM191800 26012G18KT P6SM SCT050
     FM200000 24006KT P6SM SCT250=



000
FTUS42 KJAX 190900 AAB
TAFGNV
TAF AMD
KGNV 190900Z 1909/2006 25005KT P6SM FEW020
      TEMPO 1909/1911 4SM BR
     FM191400 28010KT P6SM SCT040
     FM191800 26012G18KT P6SM SCT050
     FM200000 24006KT P6SM SCT250=



000
FTUS42 KJAX 190800 AAA
TAFGNV
TAF AMD
KGNV 190830Z 1909/2006 25005KT P6SM FEW020
      TEMPO 1908/1911 1SM BR
     FM191400 28010KT P6SM SCT040
     FM191800 26012G18KT P6SM SCT050
     FM200000 24006KT P6SM SCT250=



000
FTUS42 KJAX 190500
TAFJAX
TAF
KJAX 190520Z 1906/2006 24004KT P6SM SCT250
     FM191300 26008KT P6SM FEW025
     FM191800 25010G16KT P6SM VCTS SCT040CB BKN250
     FM200000 24006KT P6SM FEW100 SCT250=



000
FTUS42 KJAX 190500
TAFCRG
TAF
KCRG 190520Z 1906/2006 24007KT P6SM SCT250
     FM191300 25008KT P6SM FEW025
     FM191800 25010G16KT P6SM VCTS SCT040CB BKN250
     FM200000 24006KT P6SM FEW100 SCT250=



000
FTUS42 KJAX 190500
TAFGNV
TAF
KGNV 190520Z 1906/2006 25005KT P6SM FEW020
     FM191400 28010KT P6SM SCT040
     FM191800 26012G18KT P6SM SCT050
     FM200000 24006KT P6SM SCT250=



000
FTUS42 KJAX 190500
TAFSSI
TAF
KSSI 190520Z 1906/2006 25008KT P6SM SCT250
     FM191800 24009G17KT P6SM VCTS SCT040CB BKN250
     FM200100 24008KT P6SM FEW100 SCT250=



000
FTUS42 KJAX 182300
TAFGNV
TAF
KGNV 182337Z 1900/1924 26007KT P6SM FEW050 BKN250
     FM190300 25005KT P6SM FEW020
     FM191400 28010KT P6SM SCT040=



000
FTUS42 KJAX 182300
TAFCRG
TAF
KCRG 182337Z 1900/1924 23008KT P6SM FEW045 BKN200
     FM190200 24007KT P6SM SCT250
     FM191300 25008KT P6SM FEW025
     FM191800 25010G16KT P6SM VCTS SCT040CB BKN250=



000
FTUS42 KJAX 182300
TAFSSI
TAF
KSSI 182337Z 1900/1924 23011KT P6SM FEW045 BKN250
     FM190200 25008KT P6SM SCT250
     FM191800 24009G17KT P6SM VCTS SCT040CB BKN250=



000
FTUS42 KJAX 182300
TAFJAX
TAF
KJAX 182337Z 1900/1924 23008KT P6SM FEW040 BKN200
     FM190200 24004KT P6SM SCT250
     FM191300 26008KT P6SM FEW025
     FM191800 25010G16KT P6SM VCTS SCT040CB BKN250=



000
FTUS42 KJAX 182200 AAD
TAFCRG
TAF AMD
KCRG 182258Z 1823/1918 22007KT P6SM FEW045 BKN200
     FM190200 24006KT P6SM SCT250
     FM191300 27010KT P6SM FEW025=



000
FTUS42 KJAX 182200 AAC
TAFJAX
TAF AMD
KJAX 182221Z 1822/1918 23007KT P6SM VCSH FEW040 SCT100 BKN200
     FM190100 24004KT P6SM SCT250
     FM191300 27009KT P6SM FEW025=



000
FTUS42 KJAX 182100 AAC
TAFCRG
TAF AMD
KCRG 182122Z 1821/1918 22009KT P6SM VCTS SCT045CB BKN120
      TEMPO 1821/1822 5SM TSRA
     FM190100 23006KT P6SM SCT250
     FM191300 27010KT P6SM FEW025=



000
FTUS42 KJAX 182100 AAB
TAFJAX
TAF AMD
KJAX 182122Z 1821/1918 23006KT P6SM VCTS SCT040CB BKN100
      TEMPO 1821/1822 -TSRA
     FM190100 24004KT P6SM SCT250
     FM191300 27009KT P6SM FEW025=



000
FTUS42 KJAX 182100 AAC
TAFGNV
TAF AMD
KGNV 182122Z 1821/1918 26008KT P6SM VCTS SCT040CB BKN150
      TEMPO 1821/1823 6SM TSRA BKN035CB
     FM182300 24008KT P6SM SCT050 BKN250
     FM190300 25005KT P6SM FEW020
     FM191400 28010KT P6SM SCT040=



000
FTUS42 KJAX 182100 AAA
TAFSSI
TAF AMD
KSSI 182122Z 1821/1918 23010KT P6SM VCTS SCT045CB BKN250
     FM190100 25007KT P6SM SCT250=



000
FTUS42 KJAX 182000 AAB
TAFGNV
TAF AMD
KGNV 182031Z 1821/1918 26006KT P6SM VCTS BKN040CB
      TEMPO 1821/1823 VRB12G25KT 4SM TSRA BKN035CB
     FM182300 24008KT P6SM SCT050 BKN250
     FM190300 25005KT P6SM FEW020
     FM191400 28010KT P6SM SCT040=



000
FTUS42 KJAX 182000 AAA
TAFJAX
TAF AMD
KJAX 182019Z 1820/1918 23011KT P6SM VCTS SCT040CB BKN120
      TEMPO 1820/1822 VRB15G34KT 2SM TSRA SCT020 BKN030CB
     FM190100 24006KT P6SM SCT250
     FM191300 27009KT P6SM FEW025=



000
FTUS42 KJAX 182000 AAB
TAFCRG
TAF AMD
KCRG 182016Z 1820/1918 22009KT P6SM VCTS BKN045CB BKN250
      TEMPO 1820/1822 VRB16G33KT 2SM TSRA BKN030CB
     FM190100 23006KT P6SM SCT250
     FM191300 27010KT P6SM FEW025=



000
FTUS42 KJAX 181900 AAA
TAFGNV
TAF AMD
KGNV 181902Z 1819/1918 26010KT P6SM VCTS BKN040CB
      TEMPO 1819/1821 VRB18G30KT 1 1/2SM +TSRA BKN030CB
     FM182300 24008KT P6SM SCT050 BKN250
     FM190300 25005KT P6SM FEW020
     FM191400 28010KT P6SM SCT040=



000
FTUS42 KJAX 181800 AAA
TAFJAX
TAF AMD
KJAX 181849Z 1819/1918 26009KT P6SM VCTS SCT045CB BKN250
      TEMPO 1819/1822 VRB15G30KT 3SM TSRA BKN040CB
     FM190100 24006KT P6SM SCT250
     FM191300 27009KT P6SM FEW025=



000
FTUS42 KJAX 181800 AAA
TAFCRG
TAF AMD
KCRG 181832Z 1819/1918 23009KT P6SM VCTS BKN045CB BKN250
      TEMPO 1819/1822 VRB15G30KT 3SM TSRA BKN040CB
     FM190100 23006KT P6SM SCT250
     FM191300 27010KT P6SM FEW025=



000
FTUS42 KJAX 181700
TAFSSI
TAF
KSSI 181720Z 1818/1918 26010KT P6SM SCT040
     FM182000 22010KT P6SM VCTS SCT045CB BKN250
     FM190200 25007KT P6SM SCT250=



000
FTUS42 KJAX 181700
TAFJAX
TAF
KJAX 181720Z 1818/1918 26010KT P6SM SCT035 SCT250
     FM181900 24008KT P6SM VCTS SCT045CB BKN250
      TEMPO 1819/1822 VRB15G30KT 3SM TSRA BKN040CB
     FM190100 24006KT P6SM SCT250
     FM191300 27009KT P6SM FEW025=



000
FTUS42 KJAX 181700
TAFCRG
TAF
KCRG 181720Z 1818/1918 27011KT P6SM SCT040
     FM181900 22009KT P6SM VCTS BKN045CB BKN250
      TEMPO 1820/1823 VRB15G30KT 3SM TSRA BKN040CB
     FM190100 23006KT P6SM SCT250
     FM191300 27010KT P6SM FEW025=



000
FTUS42 KJAX 181700
TAFGNV
TAF
KGNV 181720Z 1818/1918 28008G16KT P6SM VCTS BKN040CB
     FM182300 26008KT P6SM SCT050 BKN250
     FM190300 25005KT P6SM FEW020
     FM191400 28010KT P6SM SCT040=



000
FTUS42 KJAX 181100
TAFJAX
TAF
KJAX 181120Z 1812/1912 22003KT P6SM SCT250
     FM181400 26007KT P6SM FEW025 SCT250
     FM181900 24008KT P6SM VCTS SCT045CB BKN250
     FM190200 24004KT P6SM SCT250=



000
FTUS42 KJAX 181100
TAFGNV
TAF
KGNV 181120Z 1812/1912 23004KT P6SM SCT250
     FM181300 26007KT P6SM FEW025 SCT250
     FM181700 24008KT P6SM VCTS SCT045CB BKN250
     FM190200 24004KT P6SM SCT250=



000
FTUS42 KJAX 181100
TAFCRG
TAF
KCRG 181120Z 1812/1912 22003KT P6SM SCT250
     FM181400 26007KT P6SM FEW025 SCT250
     FM181900 22008KT P6SM VCTS SCT045CB BKN250
     FM190200 24004KT P6SM SCT250=



000
FTUS42 KJAX 181100
TAFSSI
TAF
KSSI 181120Z 1812/1912 24006KT P6SM SCT250
     FM181400 26007KT P6SM FEW025 BKN250
     FM182000 20010KT P6SM VCTS SCT045CB BKN250
     FM190200 22005KT P6SM SCT250=



000
FTUS42 KJAX 181000 AAA
TAFGNV
TAF AMD
KGNV 181003Z 1810/1906 23004KT P6SM SCT250
     FM181300 26007KT P6SM FEW025 SCT250
     FM181700 24008KT P6SM VCTS SCT045CB BKN250
     FM190200 24004KT P6SM SCT250=



000
FTUS42 KJAX 180500
TAFJAX
TAF
KJAX 180536Z 1806/1906 22003KT P6SM SCT250
     FM181400 26007KT P6SM FEW025 SCT250
     FM181900 24008KT P6SM VCTS SCT045CB BKN250
     FM190200 24004KT P6SM SCT250=



000
FTUS42 KJAX 180500
TAFGNV
TAF
KGNV 180536Z 1806/1906 24006KT P6SM SCT250
     FM180800 00000KT 4SM BR SCT250
     FM181300 26007KT P6SM FEW025 SCT250
     FM181700 24008KT P6SM VCTS SCT045CB BKN250
     FM190200 24004KT P6SM SCT250=



000
FTUS42 KJAX 180500
TAFCRG
TAF
KCRG 180536Z 1806/1906 22003KT P6SM SCT250
     FM181400 26007KT P6SM FEW025 SCT250
     FM181900 22008KT P6SM VCTS SCT045CB BKN250
     FM190200 24004KT P6SM SCT250=



000
FTUS42 KJAX 180500
TAFSSI
TAF
KSSI 180536Z 1806/1906 24006KT P6SM SCT250
     FM181400 26007KT P6SM FEW025 BKN250
     FM182000 20010KT P6SM VCTS SCT045CB BKN250
     FM190200 22005KT P6SM SCT250=



000
FTUS42 KJAX 180300 AAA
TAFJAX
TAF AMD
KJAX 180305Z 1803/1824 VRB03KT P6SM FEW025 SCT080 BKN250
      TEMPO 1803/1807 4SM BR
     FM181400 26006KT P6SM FEW025 SCT035
     FM181900 24008KT P6SM VCTS SCT045CB BKN250=



000
FTUS42 KJAX 180100 AAA
TAFSSI
TAF AMD
KSSI 180103Z 1801/1824 24008KT P6SM FEW060 BKN250
     FM181400 26007KT P6SM SCT030 BKN250
     FM182000 19008KT P6SM VCTS SCT045CB BKN250=



000
FTUS42 KJAX 172300
TAFCRG
TAF
KCRG 172339Z 1800/1824 21005KT P6SM VCSH FEW030 SCT100 BKN250
     FM180200 22004KT P6SM SCT250
     FM181400 27008KT P6SM FEW025 SCT030
     FM181900 24008KT P6SM VCTS SCT045CB BKN250=



000
FTUS42 KJAX 172300
TAFSSI
TAF
KSSI 172339Z 1800/1824 19008KT P6SM VCSH SCT060 BKN100
     FM180300 23006KT P6SM FEW020 SCT050 BKN250
     FM181400 26007KT P6SM SCT030 BKN250
     FM182000 19008KT P6SM VCTS SCT045CB BKN250=



000
FTUS42 KJAX 172300
TAFGNV
TAF
KGNV 172339Z 1800/1824 27010KT P6SM FEW050 SCT250
     FM180200 24003KT P6SM FEW015
      TEMPO 1809/1812 5SM BR
     FM181500 26008KT P6SM SCT025 BKN040
     FM181800 25009KT P6SM VCTS SCT045CB BKN250=



000
FTUS42 KJAX 172300
TAFJAX
TAF
KJAX 172339Z 1800/1824 VRB03KT P6SM FEW025 SCT080 BKN250
     FM181400 26006KT P6SM FEW025 SCT035
     FM181900 24008KT P6SM VCTS SCT045CB BKN250=



000
FTUS42 KJAX 172100 AAC
TAFCRG
TAF AMD
KCRG 172149Z 1722/1818 22006KT P6SM VCTS SCT045CB BKN250
      TEMPO 1722/1723 VRB18G30KT 1 1/2SM TSRA BR BKN030CB
     FM172330 20007KT P6SM SCT040 BKN250
     FM180300 22004KT P6SM SCT250
     FM181400 27008KT P6SM SCT030=



000
FTUS42 KJAX 172100 AAB
TAFCRG
TAF AMD
KCRG 172123Z 1721/1818 22006KT P6SM VCSH SCT050 BKN250
      TEMPO 1721/1723 VRB15G25KT 4SM TSRA BKN030CB
     FM172330 20007KT P6SM SCT040 BKN250
     FM180300 22004KT P6SM SCT250
     FM181400 27008KT P6SM SCT030=



000
FTUS42 KJAX 172100 AAB
TAFJAX
TAF AMD
KJAX 172115Z 1721/1818 21008KT 6SM SHRA VCTS BKN050CB BKN120
      TEMPO 1721/1722 26017G32KT 3SM TSRA BKN030CB
     FM172230 22005KT P6SM VCSH SCT050 SCT250
     FM181400 26008KT P6SM SCT030=



000
FTUS42 KJAX 172000 AAA
TAFJAX
TAF AMD
KJAX 172000Z 1720/1818 23008KT P6SM VCSH BKN050 BKN120
      TEMPO 1721/1723 VRB15G25KT 4SM TSRA BKN035CB
     FM180000 22005KT P6SM SCT050 SCT250
     FM181400 26008KT P6SM SCT030=



000
FTUS42 KJAX 171900 AAA
TAFCRG
TAF AMD
KCRG 171927Z 1719/1818 25008KT P6SM VCSH SCT050
     FM172300 20007KT P6SM SCT040 BKN250
     FM180300 22004KT P6SM SCT250
     FM181400 27008KT P6SM SCT030=



000
FTUS42 KJAX 171700
TAFGNV
TAF
KGNV 171720Z 1718/1818 24009G16KT P6SM VCTS BKN035CB
     FM172300 24007KT P6SM FEW050 SCT250
     FM180200 24003KT P6SM FEW020
      TEMPO 1809/1812 5SM BR
     FM181500 27009KT P6SM SCT025 BKN040=



000
FTUS42 KJAX 171700
TAFSSI
TAF
KSSI 171720Z 1718/1818 27007KT P6SM SCT045
     FM172000 18009KT P6SM BKN050
     FM180300 23006KT P6SM SCT050 BKN250
     FM181400 27007KT P6SM SCT030 BKN250=



000
FTUS42 KJAX 171700
TAFJAX
TAF
KJAX 171720Z 1718/1818 26008KT P6SM SCT035
     FM171900 25008KT P6SM VCTS BKN040CB
     FM172300 22006KT P6SM SCT050 SCT250
     FM181400 26008KT P6SM SCT030=



000
FTUS42 KJAX 171700
TAFCRG
TAF
KCRG 171720Z 1718/1818 25008KT P6SM SCT035
     FM172100 18007KT P6SM SCT040
     FM180300 22004KT P6SM SCT250
     FM181400 27008KT P6SM SCT030=



000
FTUS42 KJAX 171600 AAC
TAFGNV
TAF AMD
KGNV 171608Z 1716/1812 26009KT P6SM VCTS BKN035CB
     FM172200 25006KT P6SM FEW050 SCT250
     FM180900 00000KT 5SM BR SCT250=



000
FTUS42 KJAX 171200 AAB
TAFGNV
TAF AMD
KGNV 171211Z 1712/1812 26004KT P6SM FEW020 SCT250
     FM171800 25008KT P6SM VCTS SCT050CB SCT250
     FM172200 25006KT P6SM FEW050 SCT250
     FM180900 00000KT 5SM BR SCT250=



000
FTUS42 KJAX 171200 AAA
TAFGNV
TAF AMD
KGNV 171210Z 1712/1812 26004KT P6SM FEW020 SCT250
     FM171800 25008KT P6SM VCTS SCT050CB SCT250
     FM172200 25006KT P6SM FEW050 SCT250
     FM180900 00000KT 5SM BR SCT250=



000
FTUS42 KJAX 171100
TAFJAX
TAF
KJAX 171120Z 1712/1812 24004KT 5SM BR SCT250
     FM171300 26005KT P6SM FEW020 SCT250
     FM172100 20006KT P6SM SCT050 SCT250=



000
FTUS42 KJAX 171100
TAFSSI
TAF
KSSI 171120Z 1712/1812 26006KT P6SM FEW020 SCT050
     FM171900 17009KT P6SM SCT050 SCT250
     FM180300 21007KT P6SM SCT250=



000
FTUS42 KJAX 171100
TAFGNV
TAF
KGNV 171120Z 1712/1812 00000KT 3SM BR SCT005 SCT250
     FM171300 26005KT P6SM FEW020 SCT250
     FM171800 25008KT P6SM VCTS SCT050CB SCT250
     FM172200 25006KT P6SM FEW050 SCT250
     FM180900 00000KT 5SM BR SCT250=



000
FTUS42 KJAX 171100
TAFCRG
TAF
KCRG 171120Z 1712/1812 25005KT P6SM FEW020 SCT250
     FM172000 18007KT P6SM SCT050 SCT250
     FM180200 21005KT P6SM SCT250=



000
FTUS42 KJAX 171000 AAA
TAFJAX
TAF AMD
KJAX 171003Z 1710/1806 24003KT 5SM BR SCT005 SCT250
     FM171300 26005KT P6SM FEW020 SCT250
     FM172100 20006KT P6SM SCT050 SCT250=



000
FTUS42 KJAX 170500
TAFCRG
TAF
KCRG 170521Z 1706/1806 23004KT P6SM SCT250
     FM171000 24003KT P6SM SCT005 SCT250
     FM171300 26005KT P6SM FEW020 SCT250
     FM172000 18007KT P6SM SCT050 SCT250
     FM180200 21005KT P6SM SCT250=



000
FTUS42 KJAX 170500
TAFJAX
TAF
KJAX 170521Z 1706/1806 23004KT P6SM SCT250
     FM171000 24003KT P6SM SCT005 SCT250
     FM171300 26005KT P6SM FEW020 SCT250
     FM172100 20006KT P6SM SCT050 SCT250=



000
FTUS42 KJAX 170500
TAFGNV
TAF
KGNV 170521Z 1706/1806 24003KT 5SM BR SCT250
     FM170800 00000KT 3SM BR SCT005 SCT250
     FM171300 26005KT P6SM FEW020 SCT250
     FM171800 25008KT P6SM VCTS SCT050CB SCT250
     FM172200 25006KT P6SM FEW050 SCT250=



000
FTUS42 KJAX 170500
TAFSSI
TAF
KSSI 170521Z 1706/1806 23006KT P6SM SCT250
     FM170900 25005KT P6SM SCT005 SCT250
     FM171300 26006KT P6SM FEW020 SCT050
     FM171900 17009KT P6SM SCT050 SCT250
     FM180300 21007KT P6SM SCT250=



    US Dept of Commerce
    National Oceanic and Atmospheric Administration
    National Weather Service
    1325 East West Highway
    Silver Spring, MD 20910
    Page Author: NWS Internet Services Team
Disclaimer
Information Quality
Credits
Glossary
Privacy Policy
Freedom of Information Act (FOIA)
About Us
Career Opportunities